sensor_id;sensor_type;location;lat;lon;timestamp;temperature;humidity
20364;DHT22;10340;53.664;9.908;2022-12-11T00:00:27;-1.30;99.90
20364;DHT22;10340;53.664;9.908;2022-12-11T00:02:54;-1.30;99.90
20364;DHT22;10340;53.664;9.908;2022-12-11T00:05:23;-1.30;99.90
20364;DHT22;10340;53.664;9.908;2022-12-11T00:07:50;-1.20;99.90
20364;DHT22;10340;53.664;9.908;2022-12-11T00:10:17;-1.20;99.90
20364;DHT22;10340;53.664;9.908;2022-12-11T00:12:44;-1.20;99.90
20364;DHT22;10340;53.664;9.908;2022-12-11T00:15:10;-1.20;99.90
20364;DHT22;10340;53.664;9.908;2022-12-11T00:17:37;-1.30;99.90
20364;DHT22;10340;53.664;9.908;2022-12-11T00:20:05;-1.30;99.90
20364;DHT22;10340;53.664;9.908;2022-12-11T00:22:34;-1.30;99.90
20364;DHT22;10340;53.664;9.908;2022-12-11T00:25:02;-1.30;99.90
20364;DHT22;10340;53.664;9.908;2022-12-11T00:27:29;-1.40;99.90
20364;DHT22;10340;53.664;9.908;2022-12-11T00:29:55;-1.40;99.90
20364;DHT22;10340;53.664;9.908;2022-12-11T00:32:22;-1.40;99.90
20364;DHT22;10340;53.664;9.908;2022-12-11T00:34:49;-1.40;99.90
20364;DHT22;10340;53.664;9.908;2022-12-11T00:37:16;-1.40;99.90
20364;DHT22;10340;53.664;9.908;2022-12-11T00:39:45;-1.30;99.90
20364;DHT22;10340;53.664;9.908;2022-12-11T00:42:12;-1.30;99.90
20364;DHT22;10340;53.664;9.908;2022-12-11T00:44:39;-1.30;99.90
20364;DHT22;10340;53.664;9.908;2022-12-11T00:47:06;-1.30;99.90
20364;DHT22;10340;53.664;9.908;2022-12-11T00:49:33;-1.30;99.90
20364;DHT22;10340;53.664;9.908;2022-12-11T00:52:00;-1.40;99.90
20364;DHT22;10340;53.664;9.908;2022-12-11T00:54:27;-1.40;99.90
20364;DHT22;10340;53.664;9.908;2022-12-11T00:56:55;-1.40;99.90
20364;DHT22;10340;53.664;9.908;2022-12-11T00:59:22;-1.40;99.90
20364;DHT22;10340;53.664;9.908;2022-12-11T01:01:50;-1.40;99.90
20364;DHT22;10340;53.664;9.908;2022-12-11T01:04:16;-1.40;99.90
20364;DHT22;10340;53.664;9.908;2022-12-11T01:06:43;-1.40;99.90
20364;DHT22;10340;53.664;9.908;2022-12-11T01:09:10;-1.40;99.90
20364;DHT22;10340;53.664;9.908;2022-12-11T01:11:56;-1.40;99.90
20364;DHT22;10340;53.664;9.908;2022-12-11T01:14:23;-1.40;99.90
20364;DHT22;10340;53.664;9.908;2022-12-11T01:16:50;-1.40;99.90
20364;DHT22;10340;53.664;9.908;2022-12-11T01:19:18;-1.40;99.90
20364;DHT22;10340;53.664;9.908;2022-12-11T01:21:45;-1.40;99.90
20364;DHT22;10340;53.664;9.908;2022-12-11T01:24:12;-1.30;99.90
20364;DHT22;10340;53.664;9.908;2022-12-11T01:26:39;-1.30;99.90
20364;DHT22;10340;53.664;9.908;2022-12-11T01:29:07;-1.40;99.90
20364;DHT22;10340;53.664;9.908;2022-12-11T01:31:34;-1.30;99.90
20364;DHT22;10340;53.664;9.908;2022-12-11T01:34:02;-1.30;99.90
20364;DHT22;10340;53.664;9.908;2022-12-11T01:36:29;-1.30;99.90
20364;DHT22;10340;53.664;9.908;2022-12-11T01:38:57;-2.90;99.90
20364;DHT22;10340;53.664;9.908;2022-12-11T01:41:24;-3.60;99.90
20364;DHT22;10340;53.664;9.908;2022-12-11T01:44:00;-1.40;99.90
20364;DHT22;10340;53.664;9.908;2022-12-11T01:46:30;-1.40;99.90
20364;DHT22;10340;53.664;9.908;2022-12-11T01:48:59;0.30;99.90
20364;DHT22;10340;53.664;9.908;2022-12-11T01:51:28;-1.20;99.90
20364;DHT22;10340;53.664;9.908;2022-12-11T01:54:01;-0.60;99.90
20364;DHT22;10340;53.664;9.908;2022-12-11T01:56:32;-1.40;99.90
20364;DHT22;10340;53.664;9.908;2022-12-11T01:59:02;-1.40;99.90
20364;DHT22;10340;53.664;9.908;2022-12-11T02:01:36;-1.40;99.90
20364;DHT22;10340;53.664;9.908;2022-12-11T02:04:06;-1.40;99.90
20364;DHT22;10340;53.664;9.908;2022-12-11T02:06:36;-1.40;99.90
20364;DHT22;10340;53.664;9.908;2022-12-11T02:09:04;-1.40;99.90
20364;DHT22;10340;53.664;9.908;2022-12-11T02:11:39;-1.40;99.90
20364;DHT22;10340;53.664;9.908;2022-12-11T02:14:12;-1.40;99.90
20364;DHT22;10340;53.664;9.908;2022-12-11T02:16:46;-1.30;99.90
20364;DHT22;10340;53.664;9.908;2022-12-11T02:19:27;-1.30;99.90
20364;DHT22;10340;53.664;9.908;2022-12-11T02:21:56;-1.30;99.90
20364;DHT22;10340;53.664;9.908;2022-12-11T02:24:34;-1.40;99.90
20364;DHT22;10340;53.664;9.908;2022-12-11T02:27:29;-1.40;99.90
20364;DHT22;10340;53.664;9.908;2022-12-11T02:30:02;-1.40;99.90
20364;DHT22;10340;53.664;9.908;2022-12-11T02:32:34;-1.40;99.90
20364;DHT22;10340;53.664;9.908;2022-12-11T02:35:08;-1.40;99.90
20364;DHT22;10340;53.664;9.908;2022-12-11T02:37:40;-1.40;99.90
20364;DHT22;10340;53.664;9.908;2022-12-11T02:40:10;-1.40;99.90
20364;DHT22;10340;53.664;9.908;2022-12-11T02:42:41;-1.40;99.90
20364;DHT22;10340;53.664;9.908;2022-12-11T02:45:11;-1.40;99.90
20364;DHT22;10340;53.664;9.908;2022-12-11T02:47:40;-1.40;99.90
20364;DHT22;10340;53.664;9.908;2022-12-11T02:50:14;-1.40;99.90
20364;DHT22;10340;53.664;9.908;2022-12-11T02:52:43;-1.40;99.90
20364;DHT22;10340;53.664;9.908;2022-12-11T02:55:14;-1.40;99.90
20364;DHT22;10340;53.664;9.908;2022-12-11T02:57:44;-1.40;99.90
20364;DHT22;10340;53.664;9.908;2022-12-11T03:00:15;-1.40;99.90
20364;DHT22;10340;53.664;9.908;2022-12-11T03:02:43;-1.40;99.90
20364;DHT22;10340;53.664;9.908;2022-12-11T03:05:13;-1.40;99.90
20364;DHT22;10340;53.664;9.908;2022-12-11T03:07:42;-1.40;99.90
20364;DHT22;10340;53.664;9.908;2022-12-11T03:10:13;-1.40;99.90
20364;DHT22;10340;53.664;9.908;2022-12-11T03:12:43;-1.30;99.90
20364;DHT22;10340;53.664;9.908;2022-12-11T03:15:15;-1.40;99.90
20364;DHT22;10340;53.664;9.908;2022-12-11T03:17:51;-1.40;99.90
20364;DHT22;10340;53.664;9.908;2022-12-11T03:20:27;-1.40;99.90
20364;DHT22;10340;53.664;9.908;2022-12-11T03:23:05;-1.40;99.90
20364;DHT22;10340;53.664;9.908;2022-12-11T03:25:40;-1.30;99.90
20364;DHT22;10340;53.664;9.908;2022-12-11T03:28:13;-1.30;99.90
20364;DHT22;10340;53.664;9.908;2022-12-11T03:30:43;-1.30;99.90
20364;DHT22;10340;53.664;9.908;2022-12-11T03:33:14;-1.30;99.90
20364;DHT22;10340;53.664;9.908;2022-12-11T03:35:44;-1.40;99.90
20364;DHT22;10340;53.664;9.908;2022-12-11T03:38:17;-1.40;99.90
20364;DHT22;10340;53.664;9.908;2022-12-11T03:40:48;-1.40;99.90
20364;DHT22;10340;53.664;9.908;2022-12-11T03:43:16;-1.40;99.90
20364;DHT22;10340;53.664;9.908;2022-12-11T03:45:45;-1.50;99.90
20364;DHT22;10340;53.664;9.908;2022-12-11T03:48:16;-1.50;99.90
20364;DHT22;10340;53.664;9.908;2022-12-11T03:50:45;-1.50;99.90
20364;DHT22;10340;53.664;9.908;2022-12-11T03:53:13;-2.60;99.90
20364;DHT22;10340;53.664;9.908;2022-12-11T03:55:42;-1.50;99.90
20364;DHT22;10340;53.664;9.908;2022-12-11T03:58:09;-1.50;99.90
20364;DHT22;10340;53.664;9.908;2022-12-11T04:00:36;-1.50;99.90
20364;DHT22;10340;53.664;9.908;2022-12-11T04:03:05;-1.50;99.90
20364;DHT22;10340;53.664;9.908;2022-12-11T04:05:44;-1.50;99.90
20364;DHT22;10340;53.664;9.908;2022-12-11T04:08:12;-1.50;99.90
20364;DHT22;10340;53.664;9.908;2022-12-11T04:10:39;-1.50;99.90
20364;DHT22;10340;53.664;9.908;2022-12-11T04:13:07;-1.50;99.90
20364;DHT22;10340;53.664;9.908;2022-12-11T04:15:35;-1.50;99.90
20364;DHT22;10340;53.664;9.908;2022-12-11T04:18:01;-1.50;99.90
20364;DHT22;10340;53.664;9.908;2022-12-11T04:20:47;-1.60;99.90
20364;DHT22;10340;53.664;9.908;2022-12-11T04:23:31;-1.60;99.90
20364;DHT22;10340;53.664;9.908;2022-12-11T04:26:17;-1.60;99.90
20364;DHT22;10340;53.664;9.908;2022-12-11T04:28:46;-1.60;99.90
20364;DHT22;10340;53.664;9.908;2022-12-11T04:31:15;-1.60;99.90
20364;DHT22;10340;53.664;9.908;2022-12-11T04:33:42;-1.60;99.90
20364;DHT22;10340;53.664;9.908;2022-12-11T04:36:11;-1.60;99.90
20364;DHT22;10340;53.664;9.908;2022-12-11T04:38:39;-1.60;99.90
20364;DHT22;10340;53.664;9.908;2022-12-11T04:41:09;-1.50;99.90
20364;DHT22;10340;53.664;9.908;2022-12-11T04:43:36;-1.60;99.90
20364;DHT22;10340;53.664;9.908;2022-12-11T04:46:05;-1.70;99.90
20364;DHT22;10340;53.664;9.908;2022-12-11T04:48:33;-1.60;99.90
20364;DHT22;10340;53.664;9.908;2022-12-11T04:51:00;-1.70;99.90
20364;DHT22;10340;53.664;9.908;2022-12-11T04:53:28;-1.70;99.90
20364;DHT22;10340;53.664;9.908;2022-12-11T04:55:55;-1.70;99.90
20364;DHT22;10340;53.664;9.908;2022-12-11T04:58:23;-1.60;99.90
20364;DHT22;10340;53.664;9.908;2022-12-11T05:00:50;-1.60;99.90
20364;DHT22;10340;53.664;9.908;2022-12-11T05:03:18;-1.60;99.90
20364;DHT22;10340;53.664;9.908;2022-12-11T05:05:50;-1.60;99.90
20364;DHT22;10340;53.664;9.908;2022-12-11T05:08:17;-1.60;99.90
20364;DHT22;10340;53.664;9.908;2022-12-11T05:10:54;-1.60;99.90
20364;DHT22;10340;53.664;9.908;2022-12-11T05:13:21;-1.60;99.90
20364;DHT22;10340;53.664;9.908;2022-12-11T05:15:48;-1.60;99.90
20364;DHT22;10340;53.664;9.908;2022-12-11T05:18:15;-1.60;99.90
20364;DHT22;10340;53.664;9.908;2022-12-11T05:20:42;-1.60;99.90
20364;DHT22;10340;53.664;9.908;2022-12-11T05:23:09;-1.60;99.90
20364;DHT22;10340;53.664;9.908;2022-12-11T05:25:36;-1.60;99.90
20364;DHT22;10340;53.664;9.908;2022-12-11T05:28:04;-1.60;99.90
20364;DHT22;10340;53.664;9.908;2022-12-11T05:30:32;-1.60;99.90
20364;DHT22;10340;53.664;9.908;2022-12-11T05:32:59;-0.80;99.90
20364;DHT22;10340;53.664;9.908;2022-12-11T05:35:26;-1.40;99.90
20364;DHT22;10340;53.664;9.908;2022-12-11T05:37:53;-0.90;99.90
20364;DHT22;10340;53.664;9.908;2022-12-11T05:40:20;0.90;99.90
20364;DHT22;10340;53.664;9.908;2022-12-11T05:42:48;1.40;99.90
20364;DHT22;10340;53.664;9.908;2022-12-11T05:45:17;-0.70;99.90
20364;DHT22;10340;53.664;9.908;2022-12-11T05:47:44;-1.60;99.90
20364;DHT22;10340;53.664;9.908;2022-12-11T05:50:12;0.50;99.90
20364;DHT22;10340;53.664;9.908;2022-12-11T05:52:39;-3.10;99.90
20364;DHT22;10340;53.664;9.908;2022-12-11T05:55:06;-1.50;99.90
20364;DHT22;10340;53.664;9.908;2022-12-11T05:57:34;-1.50;99.90
20364;DHT22;10340;53.664;9.908;2022-12-11T06:00:00;-1.50;99.90
20364;DHT22;10340;53.664;9.908;2022-12-11T06:02:29;-1.60;99.90
20364;DHT22;10340;53.664;9.908;2022-12-11T06:04:56;-1.50;99.90
20364;DHT22;10340;53.664;9.908;2022-12-11T06:07:23;-1.30;99.90
20364;DHT22;10340;53.664;9.908;2022-12-11T06:09:51;-1.00;99.90
20364;DHT22;10340;53.664;9.908;2022-12-11T06:12:18;0.00;99.90
20364;DHT22;10340;53.664;9.908;2022-12-11T06:14:45;-1.60;99.90
20364;DHT22;10340;53.664;9.908;2022-12-11T06:17:12;-1.60;99.90
20364;DHT22;10340;53.664;9.908;2022-12-11T06:19:40;-1.70;99.90
20364;DHT22;10340;53.664;9.908;2022-12-11T06:22:07;-1.70;99.90
20364;DHT22;10340;53.664;9.908;2022-12-11T06:24:34;-1.70;99.90
20364;DHT22;10340;53.664;9.908;2022-12-11T06:27:01;-1.80;99.90
20364;DHT22;10340;53.664;9.908;2022-12-11T06:29:28;-1.90;99.90
20364;DHT22;10340;53.664;9.908;2022-12-11T06:31:55;-2.00;99.90
20364;DHT22;10340;53.664;9.908;2022-12-11T06:34:22;-2.00;99.90
20364;DHT22;10340;53.664;9.908;2022-12-11T06:36:50;-2.10;99.90
20364;DHT22;10340;53.664;9.908;2022-12-11T06:39:17;-2.10;99.90
20364;DHT22;10340;53.664;9.908;2022-12-11T06:41:44;-2.20;99.90
20364;DHT22;10340;53.664;9.908;2022-12-11T06:44:11;-2.30;99.90
20364;DHT22;10340;53.664;9.908;2022-12-11T06:46:38;-2.40;99.90
20364;DHT22;10340;53.664;9.908;2022-12-11T06:49:05;-2.40;99.90
20364;DHT22;10340;53.664;9.908;2022-12-11T06:51:32;-2.50;99.90
20364;DHT22;10340;53.664;9.908;2022-12-11T06:54:01;-2.60;99.90
20364;DHT22;10340;53.664;9.908;2022-12-11T06:56:28;-2.60;99.90
20364;DHT22;10340;53.664;9.908;2022-12-11T06:58:55;-2.60;99.90
20364;DHT22;10340;53.664;9.908;2022-12-11T07:01:24;-1.90;99.90
20364;DHT22;10340;53.664;9.908;2022-12-11T07:03:52;-2.80;99.90
20364;DHT22;10340;53.664;9.908;2022-12-11T07:06:20;-2.90;99.90
20364;DHT22;10340;53.664;9.908;2022-12-11T07:08:47;-2.40;99.90
20364;DHT22;10340;53.664;9.908;2022-12-11T07:11:16;-3.00;99.90
20364;DHT22;10340;53.664;9.908;2022-12-11T07:13:44;-3.00;99.90
20364;DHT22;10340;53.664;9.908;2022-12-11T07:16:12;-3.10;99.90
20364;DHT22;10340;53.664;9.908;2022-12-11T07:18:41;-3.20;99.90
20364;DHT22;10340;53.664;9.908;2022-12-11T07:21:10;-3.20;99.90
20364;DHT22;10340;53.664;9.908;2022-12-11T07:23:38;-3.20;99.90
20364;DHT22;10340;53.664;9.908;2022-12-11T07:26:06;-3.30;99.90
20364;DHT22;10340;53.664;9.908;2022-12-11T07:28:36;-3.40;99.90
20364;DHT22;10340;53.664;9.908;2022-12-11T07:31:07;-3.40;99.90
20364;DHT22;10340;53.664;9.908;2022-12-11T07:33:34;-3.40;99.90
20364;DHT22;10340;53.664;9.908;2022-12-11T07:36:01;-3.40;99.90
20364;DHT22;10340;53.664;9.908;2022-12-11T07:38:29;-3.50;99.90
20364;DHT22;10340;53.664;9.908;2022-12-11T07:40:59;-3.50;99.90
20364;DHT22;10340;53.664;9.908;2022-12-11T07:43:26;-3.60;99.90
20364;DHT22;10340;53.664;9.908;2022-12-11T07:45:58;-3.60;99.90
20364;DHT22;10340;53.664;9.908;2022-12-11T07:48:25;-3.60;99.90
20364;DHT22;10340;53.664;9.908;2022-12-11T07:50:53;-3.60;99.90
20364;DHT22;10340;53.664;9.908;2022-12-11T07:53:20;-3.60;99.90
20364;DHT22;10340;53.664;9.908;2022-12-11T07:55:46;-3.60;99.90
20364;DHT22;10340;53.664;9.908;2022-12-11T07:58:13;-3.70;99.90
20364;DHT22;10340;53.664;9.908;2022-12-11T08:00:43;-3.70;99.90
20364;DHT22;10340;53.664;9.908;2022-12-11T08:03:11;-3.70;99.90
20364;DHT22;10340;53.664;9.908;2022-12-11T08:05:38;-3.70;99.90
20364;DHT22;10340;53.664;9.908;2022-12-11T08:08:05;-3.70;99.90
20364;DHT22;10340;53.664;9.908;2022-12-11T08:10:33;-3.70;99.90
20364;DHT22;10340;53.664;9.908;2022-12-11T08:12:59;-3.80;99.90
20364;DHT22;10340;53.664;9.908;2022-12-11T08:15:26;-3.70;99.90
20364;DHT22;10340;53.664;9.908;2022-12-11T08:17:53;-3.70;99.90
20364;DHT22;10340;53.664;9.908;2022-12-11T08:20:22;-3.70;99.90
20364;DHT22;10340;53.664;9.908;2022-12-11T08:22:49;-3.70;99.90
20364;DHT22;10340;53.664;9.908;2022-12-11T08:25:16;-3.70;99.90
20364;DHT22;10340;53.664;9.908;2022-12-11T08:27:43;-3.60;99.90
20364;DHT22;10340;53.664;9.908;2022-12-11T08:30:11;-3.60;99.90
20364;DHT22;10340;53.664;9.908;2022-12-11T08:32:38;-3.50;99.90
20364;DHT22;10340;53.664;9.908;2022-12-11T08:35:05;-3.50;99.90
20364;DHT22;10340;53.664;9.908;2022-12-11T08:37:34;-3.40;99.90
20364;DHT22;10340;53.664;9.908;2022-12-11T08:40:01;-3.40;99.90
20364;DHT22;10340;53.664;9.908;2022-12-11T08:42:28;-3.30;99.90
20364;DHT22;10340;53.664;9.908;2022-12-11T08:44:55;-3.30;99.90
20364;DHT22;10340;53.664;9.908;2022-12-11T08:47:22;-3.10;99.90
20364;DHT22;10340;53.664;9.908;2022-12-11T08:49:49;-3.20;99.90
20364;DHT22;10340;53.664;9.908;2022-12-11T08:52:16;-3.10;99.90
20364;DHT22;10340;53.664;9.908;2022-12-11T08:54:44;-3.10;99.90
20364;DHT22;10340;53.664;9.908;2022-12-11T08:57:11;-3.00;99.90
20364;DHT22;10340;53.664;9.908;2022-12-11T08:59:39;-3.00;99.90
20364;DHT22;10340;53.664;9.908;2022-12-11T09:02:06;-2.90;99.90
20364;DHT22;10340;53.664;9.908;2022-12-11T09:04:33;-2.90;99.90
20364;DHT22;10340;53.664;9.908;2022-12-11T09:07:00;-2.80;99.90
20364;DHT22;10340;53.664;9.908;2022-12-11T09:09:27;-2.80;99.90
20364;DHT22;10340;53.664;9.908;2022-12-11T09:11:55;-2.80;99.90
20364;DHT22;10340;53.664;9.908;2022-12-11T09:14:22;-2.70;99.90
20364;DHT22;10340;53.664;9.908;2022-12-11T09:16:49;-2.70;99.90
20364;DHT22;10340;53.664;9.908;2022-12-11T09:19:16;-2.50;99.90
20364;DHT22;10340;53.664;9.908;2022-12-11T09:21:44;-2.50;99.90
20364;DHT22;10340;53.664;9.908;2022-12-11T09:24:12;-2.40;99.90
20364;DHT22;10340;53.664;9.908;2022-12-11T09:26:40;-2.40;99.90
20364;DHT22;10340;53.664;9.908;2022-12-11T09:29:09;-2.40;99.90
20364;DHT22;10340;53.664;9.908;2022-12-11T09:31:37;-2.40;99.90
20364;DHT22;10340;53.664;9.908;2022-12-11T09:34:06;-2.30;99.90
20364;DHT22;10340;53.664;9.908;2022-12-11T09:36:34;-2.20;99.90
20364;DHT22;10340;53.664;9.908;2022-12-11T09:39:05;-2.20;99.90
20364;DHT22;10340;53.664;9.908;2022-12-11T09:41:38;-2.10;99.90
20364;DHT22;10340;53.664;9.908;2022-12-11T09:44:27;-2.10;99.90
20364;DHT22;10340;53.664;9.908;2022-12-11T09:46:57;-2.00;99.90
20364;DHT22;10340;53.664;9.908;2022-12-11T09:49:27;-2.00;99.90
20364;DHT22;10340;53.664;9.908;2022-12-11T09:52:07;-2.00;99.90
20364;DHT22;10340;53.664;9.908;2022-12-11T09:54:47;-1.90;99.90
20364;DHT22;10340;53.664;9.908;2022-12-11T09:57:27;-1.90;99.90
20364;DHT22;10340;53.664;9.908;2022-12-11T10:00:08;-1.80;99.90
20364;DHT22;10340;53.664;9.908;2022-12-11T10:02:45;-1.70;99.90
20364;DHT22;10340;53.664;9.908;2022-12-11T10:05:19;-1.70;99.90
20364;DHT22;10340;53.664;9.908;2022-12-11T10:07:57;-1.70;99.90
20364;DHT22;10340;53.664;9.908;2022-12-11T10:10:36;-1.60;99.90
20364;DHT22;10340;53.664;9.908;2022-12-11T10:13:10;-1.60;99.90
20364;DHT22;10340;53.664;9.908;2022-12-11T10:15:47;-1.60;99.90
20364;DHT22;10340;53.664;9.908;2022-12-11T10:18:17;-1.50;99.90
20364;DHT22;10340;53.664;9.908;2022-12-11T10:20:48;-1.40;99.90
20364;DHT22;10340;53.664;9.908;2022-12-11T10:23:17;-1.40;99.90
20364;DHT22;10340;53.664;9.908;2022-12-11T10:25:50;-1.40;99.90
20364;DHT22;10340;53.664;9.908;2022-12-11T10:28:19;-1.40;99.90
20364;DHT22;10340;53.664;9.908;2022-12-11T10:30:52;-1.30;99.90
20364;DHT22;10340;53.664;9.908;2022-12-11T10:33:22;-1.40;99.90
20364;DHT22;10340;53.664;9.908;2022-12-11T10:35:54;-1.30;99.90
20364;DHT22;10340;53.664;9.908;2022-12-11T10:38:25;-1.30;99.90
20364;DHT22;10340;53.664;9.908;2022-12-11T10:40:56;-1.20;99.90
20364;DHT22;10340;53.664;9.908;2022-12-11T10:43:34;-1.20;99.90
20364;DHT22;10340;53.664;9.908;2022-12-11T10:46:04;-1.10;99.90
20364;DHT22;10340;53.664;9.908;2022-12-11T10:48:32;-1.10;99.90
20364;DHT22;10340;53.664;9.908;2022-12-11T10:51:00;-1.00;99.90
20364;DHT22;10340;53.664;9.908;2022-12-11T10:53:28;-1.00;99.90
20364;DHT22;10340;53.664;9.908;2022-12-11T10:55:56;-1.00;99.90
20364;DHT22;10340;53.664;9.908;2022-12-11T10:58:25;-0.90;99.90
20364;DHT22;10340;53.664;9.908;2022-12-11T11:01:05;-0.90;99.90
20364;DHT22;10340;53.664;9.908;2022-12-11T11:03:35;-0.90;99.90
20364;DHT22;10340;53.664;9.908;2022-12-11T11:06:05;-0.80;99.90
20364;DHT22;10340;53.664;9.908;2022-12-11T11:08:39;-0.80;99.90
20364;DHT22;10340;53.664;9.908;2022-12-11T11:11:19;-0.80;99.90
20364;DHT22;10340;53.664;9.908;2022-12-11T11:13:51;-0.80;99.90
20364;DHT22;10340;53.664;9.908;2022-12-11T11:16:21;-0.80;99.90
20364;DHT22;10340;53.664;9.908;2022-12-11T11:18:52;-0.80;99.90
20364;DHT22;10340;53.664;9.908;2022-12-11T11:21:21;-0.70;99.90
20364;DHT22;10340;53.664;9.908;2022-12-11T11:23:49;-0.70;99.90
20364;DHT22;10340;53.664;9.908;2022-12-11T11:26:17;-0.70;99.90
20364;DHT22;10340;53.664;9.908;2022-12-11T11:28:47;-0.60;99.90
20364;DHT22;10340;53.664;9.908;2022-12-11T11:31:17;-0.50;99.90
20364;DHT22;10340;53.664;9.908;2022-12-11T11:33:52;-0.50;99.90
20364;DHT22;10340;53.664;9.908;2022-12-11T11:36:22;-0.50;99.90
20364;DHT22;10340;53.664;9.908;2022-12-11T11:39:11;-0.50;99.90
20364;DHT22;10340;53.664;9.908;2022-12-11T11:41:45;-0.50;99.90
20364;DHT22;10340;53.664;9.908;2022-12-11T11:44:18;-0.40;99.90
20364;DHT22;10340;53.664;9.908;2022-12-11T11:46:55;-0.40;99.90
20364;DHT22;10340;53.664;9.908;2022-12-11T11:49:30;-0.40;99.90
20364;DHT22;10340;53.664;9.908;2022-12-11T11:52:11;-0.40;99.90
20364;DHT22;10340;53.664;9.908;2022-12-11T11:54:45;-0.40;99.90
20364;DHT22;10340;53.664;9.908;2022-12-11T11:57:17;-0.30;99.90
20364;DHT22;10340;53.664;9.908;2022-12-11T11:59:53;-0.30;99.90
20364;DHT22;10340;53.664;9.908;2022-12-11T12:02:21;-0.30;99.90
20364;DHT22;10340;53.664;9.908;2022-12-11T12:04:49;-0.30;99.90
20364;DHT22;10340;53.664;9.908;2022-12-11T12:07:26;-0.40;99.90
20364;DHT22;10340;53.664;9.908;2022-12-11T12:10:02;-0.30;99.90
20364;DHT22;10340;53.664;9.908;2022-12-11T12:12:38;-0.30;99.90
20364;DHT22;10340;53.664;9.908;2022-12-11T12:15:17;-0.30;99.90
20364;DHT22;10340;53.664;9.908;2022-12-11T12:17:52;-0.20;99.90
20364;DHT22;10340;53.664;9.908;2022-12-11T12:20:28;-0.20;99.90
20364;DHT22;10340;53.664;9.908;2022-12-11T12:23:11;-0.20;99.90
20364;DHT22;10340;53.664;9.908;2022-12-11T12:25:42;-0.10;99.90
20364;DHT22;10340;53.664;9.908;2022-12-11T12:28:21;-0.20;99.90
20364;DHT22;10340;53.664;9.908;2022-12-11T12:31:04;-0.20;99.90
20364;DHT22;10340;53.664;9.908;2022-12-11T12:33:44;-0.20;99.90
20364;DHT22;10340;53.664;9.908;2022-12-11T12:36:20;-0.20;99.90
20364;DHT22;10340;53.664;9.908;2022-12-11T12:38:53;-0.20;99.90
20364;DHT22;10340;53.664;9.908;2022-12-11T12:41:26;-0.20;99.90
20364;DHT22;10340;53.664;9.908;2022-12-11T12:44:09;-0.20;99.90
20364;DHT22;10340;53.664;9.908;2022-12-11T12:46:47;-0.20;99.90
20364;DHT22;10340;53.664;9.908;2022-12-11T12:49:18;-0.20;99.90
20364;DHT22;10340;53.664;9.908;2022-12-11T12:51:47;-0.20;99.90
20364;DHT22;10340;53.664;9.908;2022-12-11T12:54:17;-0.20;99.90
20364;DHT22;10340;53.664;9.908;2022-12-11T12:56:45;-0.20;99.90
20364;DHT22;10340;53.664;9.908;2022-12-11T12:59:20;-0.10;99.90
20364;DHT22;10340;53.664;9.908;2022-12-11T13:01:50;-0.10;99.90
20364;DHT22;10340;53.664;9.908;2022-12-11T13:04:35;-0.10;99.90
20364;DHT22;10340;53.664;9.908;2022-12-11T13:07:17;-0.10;99.90
20364;DHT22;10340;53.664;9.908;2022-12-11T13:10:21;-0.10;99.90
20364;DHT22;10340;53.664;9.908;2022-12-11T13:12:48;-0.20;99.90
20364;DHT22;10340;53.664;9.908;2022-12-11T13:15:28;-0.10;99.90
20364;DHT22;10340;53.664;9.908;2022-12-11T13:18:31;0.00;99.90
20364;DHT22;10340;53.664;9.908;2022-12-11T13:21:29;0.10;99.90
20364;DHT22;10340;53.664;9.908;2022-12-11T13:28:06;0.20;99.90
20364;DHT22;10340;53.664;9.908;2022-12-11T13:30:34;0.20;99.90
20364;DHT22;10340;53.664;9.908;2022-12-11T13:33:14;0.30;99.90
20364;DHT22;10340;53.664;9.908;2022-12-11T13:35:47;0.30;99.90
20364;DHT22;10340;53.664;9.908;2022-12-11T13:38:16;0.30;99.90
20364;DHT22;10340;53.664;9.908;2022-12-11T13:40:53;0.30;99.90
20364;DHT22;10340;53.664;9.908;2022-12-11T13:43:33;0.30;99.90
20364;DHT22;10340;53.664;9.908;2022-12-11T13:46:04;0.30;99.90
20364;DHT22;10340;53.664;9.908;2022-12-11T13:48:35;0.30;99.90
20364;DHT22;10340;53.664;9.908;2022-12-11T13:51:05;0.60;99.90
20364;DHT22;10340;53.664;9.908;2022-12-11T13:53:32;0.30;99.90
20364;DHT22;10340;53.664;9.908;2022-12-11T13:56:01;-1.70;99.90
20364;DHT22;10340;53.664;9.908;2022-12-11T13:58:33;2.60;99.90
20364;DHT22;10340;53.664;9.908;2022-12-11T14:01:06;0.20;99.90
20364;DHT22;10340;53.664;9.908;2022-12-11T14:03:38;0.20;99.90
20364;DHT22;10340;53.664;9.908;2022-12-11T14:06:08;0.20;99.90
20364;DHT22;10340;53.664;9.908;2022-12-11T14:08:44;0.20;99.90
20364;DHT22;10340;53.664;9.908;2022-12-11T14:11:20;0.20;99.90
20364;DHT22;10340;53.664;9.908;2022-12-11T14:13:55;0.20;99.90
20364;DHT22;10340;53.664;9.908;2022-12-11T14:16:38;0.20;99.90
20364;DHT22;10340;53.664;9.908;2022-12-11T14:19:06;0.10;99.90
20364;DHT22;10340;53.664;9.908;2022-12-11T14:21:35;0.10;99.90
20364;DHT22;10340;53.664;9.908;2022-12-11T14:24:03;0.00;99.90
20364;DHT22;10340;53.664;9.908;2022-12-11T14:26:53;-0.10;99.90
20364;DHT22;10340;53.664;9.908;2022-12-11T14:29:30;-0.10;99.90
20364;DHT22;10340;53.664;9.908;2022-12-11T14:32:01;-0.20;99.90
20364;DHT22;10340;53.664;9.908;2022-12-11T14:34:32;-0.30;99.90
20364;DHT22;10340;53.664;9.908;2022-12-11T14:37:01;-0.30;99.90
20364;DHT22;10340;53.664;9.908;2022-12-11T14:39:32;-0.40;99.90
20364;DHT22;10340;53.664;9.908;2022-12-11T14:42:03;-0.50;99.90
20364;DHT22;10340;53.664;9.908;2022-12-11T14:44:43;-0.50;99.90
20364;DHT22;10340;53.664;9.908;2022-12-11T14:47:13;-0.60;99.90
20364;DHT22;10340;53.664;9.908;2022-12-11T14:49:46;-0.60;99.90
20364;DHT22;10340;53.664;9.908;2022-12-11T14:52:16;-0.60;99.90
20364;DHT22;10340;53.664;9.908;2022-12-11T14:54:46;-0.70;99.90
20364;DHT22;10340;53.664;9.908;2022-12-11T14:57:19;-0.70;99.90
20364;DHT22;10340;53.664;9.908;2022-12-11T14:59:49;-0.80;99.90
20364;DHT22;10340;53.664;9.908;2022-12-11T15:02:23;-0.80;99.90
20364;DHT22;10340;53.664;9.908;2022-12-11T15:07:56;-0.90;99.90
20364;DHT22;10340;53.664;9.908;2022-12-11T15:10:27;-0.90;99.90
20364;DHT22;10340;53.664;9.908;2022-12-11T15:12:57;-0.90;99.90
20364;DHT22;10340;53.664;9.908;2022-12-11T15:15:27;-1.00;99.90
20364;DHT22;10340;53.664;9.908;2022-12-11T15:18:05;-1.00;99.90
20364;DHT22;10340;53.664;9.908;2022-12-11T15:20:37;-1.00;99.90
20364;DHT22;10340;53.664;9.908;2022-12-11T15:23:06;-0.90;99.90
20364;DHT22;10340;53.664;9.908;2022-12-11T15:25:33;-1.00;99.90
20364;DHT22;10340;53.664;9.908;2022-12-11T15:28:00;-1.10;99.90
20364;DHT22;10340;53.664;9.908;2022-12-11T15:30:32;-1.00;99.90
20364;DHT22;10340;53.664;9.908;2022-12-11T15:33:17;-1.00;99.90
20364;DHT22;10340;53.664;9.908;2022-12-11T15:36:00;-1.00;99.90
20364;DHT22;10340;53.664;9.908;2022-12-11T15:38:32;-1.00;99.90
20364;DHT22;10340;53.664;9.908;2022-12-11T15:41:00;-1.00;99.90
20364;DHT22;10340;53.664;9.908;2022-12-11T15:43:31;-1.00;99.90
20364;DHT22;10340;53.664;9.908;2022-12-11T15:46:03;-1.00;99.90
20364;DHT22;10340;53.664;9.908;2022-12-11T15:48:30;-1.00;99.90
20364;DHT22;10340;53.664;9.908;2022-12-11T15:50:57;-1.10;99.90
20364;DHT22;10340;53.664;9.908;2022-12-11T15:53:24;-1.10;99.90
20364;DHT22;10340;53.664;9.908;2022-12-11T15:55:51;-1.10;99.90
20364;DHT22;10340;53.664;9.908;2022-12-11T15:58:20;-1.00;99.90
20364;DHT22;10340;53.664;9.908;2022-12-11T16:00:49;-1.00;99.90